sensor_id;sensor_type;location;lat;lon;timestamp;temperature;humidity
11650;DHT22;5881;48.522;7.682;2022-08-03T00:01:39;20.60;1.00
11650;DHT22;5881;48.522;7.682;2022-08-03T00:04:05;20.60;1.00
11650;DHT22;5881;48.522;7.682;2022-08-03T00:06:31;20.50;1.00
11650;DHT22;5881;48.522;7.682;2022-08-03T00:08:57;20.50;1.00
11650;DHT22;5881;48.522;7.682;2022-08-03T00:11:23;20.60;1.00
11650;DHT22;5881;48.522;7.682;2022-08-03T00:13:49;20.60;1.00
11650;DHT22;5881;48.522;7.682;2022-08-03T00:16:15;20.60;1.00
11650;DHT22;5881;48.522;7.682;2022-08-03T00:18:41;20.50;1.00
11650;DHT22;5881;48.522;7.682;2022-08-03T00:21:07;20.50;1.00
11650;DHT22;5881;48.522;7.682;2022-08-03T00:23:34;20.40;1.00
11650;DHT22;5881;48.522;7.682;2022-08-03T00:25:59;20.40;1.00
11650;DHT22;5881;48.522;7.682;2022-08-03T00:28:25;20.50;1.00
11650;DHT22;5881;48.522;7.682;2022-08-03T00:30:51;20.50;1.00
11650;DHT22;5881;48.522;7.682;2022-08-03T00:33:17;20.30;1.00
11650;DHT22;5881;48.522;7.682;2022-08-03T00:35:43;20.30;1.00
11650;DHT22;5881;48.522;7.682;2022-08-03T00:38:08;20.30;1.00
11650;DHT22;5881;48.522;7.682;2022-08-03T00:40:34;20.30;1.00
11650;DHT22;5881;48.522;7.682;2022-08-03T00:43:04;20.30;1.00
11650;DHT22;5881;48.522;7.682;2022-08-03T00:45:32;20.30;1.00
11650;DHT22;5881;48.522;7.682;2022-08-03T00:47:59;20.30;1.00
11650;DHT22;5881;48.522;7.682;2022-08-03T00:50:26;20.30;1.00
11650;DHT22;5881;48.522;7.682;2022-08-03T00:52:54;20.20;1.00
11650;DHT22;5881;48.522;7.682;2022-08-03T00:55:20;20.20;1.00
11650;DHT22;5881;48.522;7.682;2022-08-03T00:57:46;20.20;1.00
11650;DHT22;5881;48.522;7.682;2022-08-03T01:00:15;20.20;1.00
11650;DHT22;5881;48.522;7.682;2022-08-03T01:02:41;20.10;1.00
11650;DHT22;5881;48.522;7.682;2022-08-03T01:05:08;20.10;1.00
11650;DHT22;5881;48.522;7.682;2022-08-03T01:10:16;20.10;1.00
11650;DHT22;5881;48.522;7.682;2022-08-03T01:13:29;20.20;1.00
11650;DHT22;5881;48.522;7.682;2022-08-03T01:15:42;20.20;1.00
11650;DHT22;5881;48.522;7.682;2022-08-03T01:18:17;20.20;1.00
11650;DHT22;5881;48.522;7.682;2022-08-03T01:20:47;20.10;1.00
11650;DHT22;5881;48.522;7.682;2022-08-03T01:26:08;20.00;1.00
11650;DHT22;5881;48.522;7.682;2022-08-03T01:29:00;20.00;1.00
11650;DHT22;5881;48.522;7.682;2022-08-03T01:31:36;19.90;1.00
11650;DHT22;5881;48.522;7.682;2022-08-03T01:34:06;20.00;1.00
11650;DHT22;5881;48.522;7.682;2022-08-03T01:36:37;19.90;1.00
11650;DHT22;5881;48.522;7.682;2022-08-03T01:39:05;20.00;1.00
11650;DHT22;5881;48.522;7.682;2022-08-03T01:41:37;19.90;1.00
11650;DHT22;5881;48.522;7.682;2022-08-03T01:44:08;19.90;1.00
11650;DHT22;5881;48.522;7.682;2022-08-03T01:46:36;19.90;1.00
11650;DHT22;5881;48.522;7.682;2022-08-03T01:49:03;19.80;1.00
11650;DHT22;5881;48.522;7.682;2022-08-03T01:51:31;19.70;19.50
11650;DHT22;5881;48.522;7.682;2022-08-03T01:53:58;19.70;17.30
11650;DHT22;5881;48.522;7.682;2022-08-03T01:56:25;19.70;22.40
11650;DHT22;5881;48.522;7.682;2022-08-03T01:58:53;19.60;46.20
11650;DHT22;5881;48.522;7.682;2022-08-03T02:01:20;19.60;91.10
11650;DHT22;5881;48.522;7.682;2022-08-03T02:03:48;19.70;99.50
11650;DHT22;5881;48.522;7.682;2022-08-03T02:06:14;19.70;99.90
11650;DHT22;5881;48.522;7.682;2022-08-03T02:08:44;19.70;99.90
11650;DHT22;5881;48.522;7.682;2022-08-03T02:11:12;19.60;99.90
11650;DHT22;5881;48.522;7.682;2022-08-03T02:13:38;19.50;99.90
11650;DHT22;5881;48.522;7.682;2022-08-03T02:16:05;19.50;99.90
11650;DHT22;5881;48.522;7.682;2022-08-03T02:18:31;19.50;99.90
11650;DHT22;5881;48.522;7.682;2022-08-03T02:21:01;19.50;99.90
11650;DHT22;5881;48.522;7.682;2022-08-03T02:23:29;19.50;99.90
11650;DHT22;5881;48.522;7.682;2022-08-03T02:26:01;19.50;99.90
11650;DHT22;5881;48.522;7.682;2022-08-03T02:28:37;19.30;99.90
11650;DHT22;5881;48.522;7.682;2022-08-03T02:31:10;19.30;99.90
11650;DHT22;5881;48.522;7.682;2022-08-03T02:33:41;19.30;99.90
11650;DHT22;5881;48.522;7.682;2022-08-03T02:36:10;19.30;99.90
11650;DHT22;5881;48.522;7.682;2022-08-03T02:38:40;19.40;99.90
11650;DHT22;5881;48.522;7.682;2022-08-03T02:41:14;19.40;99.90
11650;DHT22;5881;48.522;7.682;2022-08-03T02:43:42;19.40;99.90
11650;DHT22;5881;48.522;7.682;2022-08-03T02:46:12;19.30;99.90
11650;DHT22;5881;48.522;7.682;2022-08-03T02:48:40;19.20;99.90
11650;DHT22;5881;48.522;7.682;2022-08-03T02:51:08;19.20;99.90
11650;DHT22;5881;48.522;7.682;2022-08-03T02:53:35;19.10;99.90
11650;DHT22;5881;48.522;7.682;2022-08-03T02:56:01;19.00;99.90
11650;DHT22;5881;48.522;7.682;2022-08-03T02:58:30;19.00;99.90
11650;DHT22;5881;48.522;7.682;2022-08-03T03:00:57;19.00;99.90
11650;DHT22;5881;48.522;7.682;2022-08-03T03:03:23;18.90;99.90
11650;DHT22;5881;48.522;7.682;2022-08-03T03:05:50;18.90;99.90
11650;DHT22;5881;48.522;7.682;2022-08-03T03:08:18;18.80;99.90
11650;DHT22;5881;48.522;7.682;2022-08-03T03:10:45;18.90;99.90
11650;DHT22;5881;48.522;7.682;2022-08-03T03:13:13;18.80;99.90
11650;DHT22;5881;48.522;7.682;2022-08-03T03:15:39;18.80;1.00
11650;DHT22;5881;48.522;7.682;2022-08-03T03:18:06;18.60;1.00
11650;DHT22;5881;48.522;7.682;2022-08-03T03:20:36;18.60;1.00
11650;DHT22;5881;48.522;7.682;2022-08-03T03:23:04;18.70;1.00
11650;DHT22;5881;48.522;7.682;2022-08-03T03:25:31;18.70;1.00
11650;DHT22;5881;48.522;7.682;2022-08-03T03:27:58;18.60;1.00
11650;DHT22;5881;48.522;7.682;2022-08-03T03:30:24;18.50;1.00
11650;DHT22;5881;48.522;7.682;2022-08-03T03:32:50;18.40;1.00
11650;DHT22;5881;48.522;7.682;2022-08-03T03:35:16;18.40;1.00
11650;DHT22;5881;48.522;7.682;2022-08-03T03:37:42;18.30;1.00
11650;DHT22;5881;48.522;7.682;2022-08-03T03:40:08;18.30;1.00
11650;DHT22;5881;48.522;7.682;2022-08-03T03:42:34;18.30;1.00
11650;DHT22;5881;48.522;7.682;2022-08-03T03:45:07;18.40;1.00
11650;DHT22;5881;48.522;7.682;2022-08-03T03:47:33;18.40;1.00
11650;DHT22;5881;48.522;7.682;2022-08-03T03:50:02;18.40;1.00
11650;DHT22;5881;48.522;7.682;2022-08-03T03:52:28;18.30;1.00
11650;DHT22;5881;48.522;7.682;2022-08-03T03:54:54;18.40;1.00
11650;DHT22;5881;48.522;7.682;2022-08-03T03:57:19;18.30;1.00
11650;DHT22;5881;48.522;7.682;2022-08-03T03:59:45;18.40;1.00
11650;DHT22;5881;48.522;7.682;2022-08-03T04:02:11;18.40;1.00
11650;DHT22;5881;48.522;7.682;2022-08-03T04:04:37;18.40;1.00
11650;DHT22;5881;48.522;7.682;2022-08-03T04:07:24;18.30;1.00
11650;DHT22;5881;48.522;7.682;2022-08-03T04:10:15;18.30;1.00
11650;DHT22;5881;48.522;7.682;2022-08-03T04:13:01;18.20;1.00
11650;DHT22;5881;48.522;7.682;2022-08-03T04:15:28;18.20;1.00
11650;DHT22;5881;48.522;7.682;2022-08-03T04:17:56;18.20;11.10
11650;DHT22;5881;48.522;7.682;2022-08-03T04:20:27;18.20;51.10
11650;DHT22;5881;48.522;7.682;2022-08-03T04:22:55;18.20;72.50
11650;DHT22;5881;48.522;7.682;2022-08-03T04:25:25;18.20;99.90
11650;DHT22;5881;48.522;7.682;2022-08-03T04:27:52;18.30;11.30
11650;DHT22;5881;48.522;7.682;2022-08-03T04:30:21;18.40;1.00
11650;DHT22;5881;48.522;7.682;2022-08-03T04:32:48;18.40;1.00
11650;DHT22;5881;48.522;7.682;2022-08-03T04:35:17;18.50;1.00
11650;DHT22;5881;48.522;7.682;2022-08-03T04:37:48;18.40;1.00
11650;DHT22;5881;48.522;7.682;2022-08-03T04:40:27;18.50;1.00
11650;DHT22;5881;48.522;7.682;2022-08-03T04:42:55;18.60;1.00
11650;DHT22;5881;48.522;7.682;2022-08-03T04:45:21;18.70;1.00
11650;DHT22;5881;48.522;7.682;2022-08-03T04:47:49;18.80;1.00
11650;DHT22;5881;48.522;7.682;2022-08-03T04:50:16;18.80;1.00
11650;DHT22;5881;48.522;7.682;2022-08-03T04:52:42;18.80;99.90
11650;DHT22;5881;48.522;7.682;2022-08-03T04:55:08;18.90;99.90
11650;DHT22;5881;48.522;7.682;2022-08-03T04:57:33;19.00;99.90
11650;DHT22;5881;48.522;7.682;2022-08-03T04:59:59;19.10;99.90
11650;DHT22;5881;48.522;7.682;2022-08-03T05:02:25;19.10;99.90
11650;DHT22;5881;48.522;7.682;2022-08-03T05:04:51;19.20;99.90
11650;DHT22;5881;48.522;7.682;2022-08-03T05:07:17;19.20;99.90
11650;DHT22;5881;48.522;7.682;2022-08-03T05:09:44;19.60;99.90
11650;DHT22;5881;48.522;7.682;2022-08-03T05:12:10;20.60;95.50
11650;DHT22;5881;48.522;7.682;2022-08-03T05:14:37;21.40;1.00
11650;DHT22;5881;48.522;7.682;2022-08-03T05:17:06;22.00;1.00
11650;DHT22;5881;48.522;7.682;2022-08-03T05:19:33;22.40;1.00
11650;DHT22;5881;48.522;7.682;2022-08-03T05:21:59;23.00;1.00
11650;DHT22;5881;48.522;7.682;2022-08-03T05:24:24;23.80;1.00
11650;DHT22;5881;48.522;7.682;2022-08-03T05:26:50;24.30;1.00
11650;DHT22;5881;48.522;7.682;2022-08-03T05:29:16;24.40;1.00
11650;DHT22;5881;48.522;7.682;2022-08-03T05:31:41;25.00;1.00
11650;DHT22;5881;48.522;7.682;2022-08-03T05:34:07;23.80;1.00
11650;DHT22;5881;48.522;7.682;2022-08-03T05:36:33;23.10;1.00
11650;DHT22;5881;48.522;7.682;2022-08-03T05:38:58;23.10;1.00
11650;DHT22;5881;48.522;7.682;2022-08-03T05:41:24;22.90;1.00
11650;DHT22;5881;48.522;7.682;2022-08-03T05:43:51;22.90;1.00
11650;DHT22;5881;48.522;7.682;2022-08-03T05:46:18;23.10;1.00
11650;DHT22;5881;48.522;7.682;2022-08-03T05:48:43;23.60;1.00
11650;DHT22;5881;48.522;7.682;2022-08-03T05:51:09;24.20;1.00
11650;DHT22;5881;48.522;7.682;2022-08-03T05:53:39;25.00;1.00
11650;DHT22;5881;48.522;7.682;2022-08-03T05:56:05;25.90;1.00
11650;DHT22;5881;48.522;7.682;2022-08-03T05:58:30;26.70;1.00
11650;DHT22;5881;48.522;7.682;2022-08-03T06:00:56;27.10;1.00
11650;DHT22;5881;48.522;7.682;2022-08-03T06:03:22;27.00;1.00
11650;DHT22;5881;48.522;7.682;2022-08-03T06:05:47;26.70;1.00
11650;DHT22;5881;48.522;7.682;2022-08-03T06:08:13;27.20;1.00
11650;DHT22;5881;48.522;7.682;2022-08-03T06:10:38;27.90;1.00
11650;DHT22;5881;48.522;7.682;2022-08-03T06:13:04;27.50;1.00
11650;DHT22;5881;48.522;7.682;2022-08-03T06:15:30;27.20;1.00
11650;DHT22;5881;48.522;7.682;2022-08-03T06:17:58;27.00;1.00
11650;DHT22;5881;48.522;7.682;2022-08-03T06:20:24;27.80;1.00
11650;DHT22;5881;48.522;7.682;2022-08-03T06:22:49;28.20;1.00
11650;DHT22;5881;48.522;7.682;2022-08-03T06:25:15;27.90;1.00
11650;DHT22;5881;48.522;7.682;2022-08-03T06:27:42;27.60;1.00
11650;DHT22;5881;48.522;7.682;2022-08-03T06:30:09;29.10;1.00
11650;DHT22;5881;48.522;7.682;2022-08-03T06:32:39;29.60;1.00
11650;DHT22;5881;48.522;7.682;2022-08-03T06:35:06;29.30;1.00
11650;DHT22;5881;48.522;7.682;2022-08-03T06:37:41;29.50;1.00
11650;DHT22;5881;48.522;7.682;2022-08-03T06:40:08;30.30;1.00
11650;DHT22;5881;48.522;7.682;2022-08-03T06:42:34;30.90;1.00
11650;DHT22;5881;48.522;7.682;2022-08-03T06:44:59;30.70;1.00
11650;DHT22;5881;48.522;7.682;2022-08-03T06:47:25;29.70;1.00
11650;DHT22;5881;48.522;7.682;2022-08-03T06:49:50;29.60;1.00
11650;DHT22;5881;48.522;7.682;2022-08-03T06:52:16;29.00;1.00
11650;DHT22;5881;48.522;7.682;2022-08-03T06:54:41;29.10;1.00
11650;DHT22;5881;48.522;7.682;2022-08-03T06:57:08;30.20;1.00
11650;DHT22;5881;48.522;7.682;2022-08-03T06:59:36;30.50;1.00
11650;DHT22;5881;48.522;7.682;2022-08-03T07:02:01;31.40;1.00
11650;DHT22;5881;48.522;7.682;2022-08-03T07:04:28;31.10;1.00
11650;DHT22;5881;48.522;7.682;2022-08-03T07:06:53;30.10;1.00
11650;DHT22;5881;48.522;7.682;2022-08-03T07:09:19;32.30;1.00
11650;DHT22;5881;48.522;7.682;2022-08-03T07:11:45;31.10;1.00
11650;DHT22;5881;48.522;7.682;2022-08-03T07:14:10;31.00;1.00
11650;DHT22;5881;48.522;7.682;2022-08-03T07:16:36;31.20;1.00
11650;DHT22;5881;48.522;7.682;2022-08-03T07:19:01;30.80;1.00
11650;DHT22;5881;48.522;7.682;2022-08-03T07:21:27;31.10;1.00
11650;DHT22;5881;48.522;7.682;2022-08-03T07:23:53;31.30;1.00
11650;DHT22;5881;48.522;7.682;2022-08-03T07:26:18;31.90;1.00
11650;DHT22;5881;48.522;7.682;2022-08-03T07:28:44;31.90;1.00
11650;DHT22;5881;48.522;7.682;2022-08-03T07:31:10;31.60;1.00
11650;DHT22;5881;48.522;7.682;2022-08-03T07:33:35;31.70;1.00
11650;DHT22;5881;48.522;7.682;2022-08-03T07:36:01;31.70;1.00
11650;DHT22;5881;48.522;7.682;2022-08-03T07:38:26;32.30;1.00
11650;DHT22;5881;48.522;7.682;2022-08-03T07:40:53;32.40;1.00
11650;DHT22;5881;48.522;7.682;2022-08-03T07:43:18;33.10;1.00
11650;DHT22;5881;48.522;7.682;2022-08-03T07:45:44;32.60;1.00
11650;DHT22;5881;48.522;7.682;2022-08-03T07:48:10;33.00;1.00
11650;DHT22;5881;48.522;7.682;2022-08-03T07:50:36;33.10;1.00
11650;DHT22;5881;48.522;7.682;2022-08-03T07:53:01;33.00;1.00
11650;DHT22;5881;48.522;7.682;2022-08-03T07:55:27;33.40;1.00
11650;DHT22;5881;48.522;7.682;2022-08-03T07:58:07;33.90;1.00
11650;DHT22;5881;48.522;7.682;2022-08-03T08:00:35;35.40;1.00
11650;DHT22;5881;48.522;7.682;2022-08-03T08:03:01;35.30;1.00
11650;DHT22;5881;48.522;7.682;2022-08-03T08:05:26;34.20;1.00
11650;DHT22;5881;48.522;7.682;2022-08-03T08:07:52;35.40;1.00
11650;DHT22;5881;48.522;7.682;2022-08-03T08:10:19;35.40;1.00
11650;DHT22;5881;48.522;7.682;2022-08-03T08:12:44;34.60;1.00
11650;DHT22;5881;48.522;7.682;2022-08-03T08:15:10;34.00;1.00
11650;DHT22;5881;48.522;7.682;2022-08-03T08:17:47;34.10;1.00
11650;DHT22;5881;48.522;7.682;2022-08-03T08:20:18;35.30;1.00
11650;DHT22;5881;48.522;7.682;2022-08-03T08:22:43;35.20;1.00
11650;DHT22;5881;48.522;7.682;2022-08-03T08:25:09;35.30;1.00
11650;DHT22;5881;48.522;7.682;2022-08-03T08:27:47;34.00;1.00
11650;DHT22;5881;48.522;7.682;2022-08-03T08:30:14;34.60;1.00
11650;DHT22;5881;48.522;7.682;2022-08-03T08:32:40;34.70;1.00
11650;DHT22;5881;48.522;7.682;2022-08-03T08:35:10;34.70;1.00
11650;DHT22;5881;48.522;7.682;2022-08-03T08:37:36;35.60;1.00
11650;DHT22;5881;48.522;7.682;2022-08-03T08:40:03;35.00;1.00
11650;DHT22;5881;48.522;7.682;2022-08-03T08:42:30;35.50;1.00
11650;DHT22;5881;48.522;7.682;2022-08-03T08:44:56;35.60;1.00
11650;DHT22;5881;48.522;7.682;2022-08-03T08:47:29;36.30;1.00
11650;DHT22;5881;48.522;7.682;2022-08-03T08:49:57;36.10;1.00
11650;DHT22;5881;48.522;7.682;2022-08-03T08:52:28;35.70;1.00
11650;DHT22;5881;48.522;7.682;2022-08-03T08:54:56;36.90;1.00
11650;DHT22;5881;48.522;7.682;2022-08-03T08:57:27;37.60;1.00
11650;DHT22;5881;48.522;7.682;2022-08-03T08:59:54;36.70;1.00
11650;DHT22;5881;48.522;7.682;2022-08-03T09:02:22;37.00;1.00
11650;DHT22;5881;48.522;7.682;2022-08-03T09:04:48;36.20;1.00
11650;DHT22;5881;48.522;7.682;2022-08-03T09:07:13;36.80;1.00
11650;DHT22;5881;48.522;7.682;2022-08-03T09:09:39;36.30;1.00
11650;DHT22;5881;48.522;7.682;2022-08-03T09:12:05;36.10;1.00
11650;DHT22;5881;48.522;7.682;2022-08-03T09:14:32;36.30;1.00
11650;DHT22;5881;48.522;7.682;2022-08-03T09:16:58;38.40;1.00
11650;DHT22;5881;48.522;7.682;2022-08-03T09:19:28;37.50;1.00
11650;DHT22;5881;48.522;7.682;2022-08-03T09:22:14;37.80;1.00
11650;DHT22;5881;48.522;7.682;2022-08-03T09:24:58;37.20;1.00
11650;DHT22;5881;48.522;7.682;2022-08-03T09:27:24;37.30;1.00
11650;DHT22;5881;48.522;7.682;2022-08-03T09:29:52;37.70;1.00
11650;DHT22;5881;48.522;7.682;2022-08-03T09:32:23;36.70;1.00
11650;DHT22;5881;48.522;7.682;2022-08-03T09:34:50;36.80;1.00
11650;DHT22;5881;48.522;7.682;2022-08-03T09:37:18;37.20;1.00
11650;DHT22;5881;48.522;7.682;2022-08-03T09:39:44;38.20;1.00
11650;DHT22;5881;48.522;7.682;2022-08-03T09:42:15;38.40;1.00
11650;DHT22;5881;48.522;7.682;2022-08-03T09:44:46;38.00;1.00
11650;DHT22;5881;48.522;7.682;2022-08-03T09:47:14;37.80;1.00
11650;DHT22;5881;48.522;7.682;2022-08-03T09:49:41;37.20;1.00
11650;DHT22;5881;48.522;7.682;2022-08-03T09:52:14;38.20;1.00
11650;DHT22;5881;48.522;7.682;2022-08-03T09:54:40;38.10;1.00
11650;DHT22;5881;48.522;7.682;2022-08-03T09:57:06;38.30;1.00
11650;DHT22;5881;48.522;7.682;2022-08-03T09:59:33;39.00;1.00
11650;DHT22;5881;48.522;7.682;2022-08-03T10:01:59;37.60;1.00
11650;DHT22;5881;48.522;7.682;2022-08-03T10:04:25;38.60;1.00
11650;DHT22;5881;48.522;7.682;2022-08-03T10:07:08;39.10;1.00
11650;DHT22;5881;48.522;7.682;2022-08-03T10:09:35;40.00;1.00
11650;DHT22;5881;48.522;7.682;2022-08-03T10:12:08;40.20;1.00
11650;DHT22;5881;48.522;7.682;2022-08-03T10:14:36;38.90;1.00
11650;DHT22;5881;48.522;7.682;2022-08-03T10:17:02;38.90;1.00
11650;DHT22;5881;48.522;7.682;2022-08-03T10:19:28;38.50;1.00
11650;DHT22;5881;48.522;7.682;2022-08-03T10:22:04;39.10;1.00
11650;DHT22;5881;48.522;7.682;2022-08-03T10:24:33;39.00;1.00
11650;DHT22;5881;48.522;7.682;2022-08-03T10:27:02;39.10;1.00
11650;DHT22;5881;48.522;7.682;2022-08-03T10:29:32;39.90;1.00
11650;DHT22;5881;48.522;7.682;2022-08-03T10:32:00;40.20;1.00
11650;DHT22;5881;48.522;7.682;2022-08-03T10:34:34;39.90;1.00
11650;DHT22;5881;48.522;7.682;2022-08-03T10:37:07;39.40;1.00
11650;DHT22;5881;48.522;7.682;2022-08-03T10:39:34;39.60;1.00
11650;DHT22;5881;48.522;7.682;2022-08-03T10:42:01;39.80;1.00
11650;DHT22;5881;48.522;7.682;2022-08-03T10:44:32;39.80;1.00
11650;DHT22;5881;48.522;7.682;2022-08-03T10:46:58;38.90;1.00
11650;DHT22;5881;48.522;7.682;2022-08-03T10:49:27;37.90;1.00
11650;DHT22;5881;48.522;7.682;2022-08-03T10:51:53;38.90;1.00
11650;DHT22;5881;48.522;7.682;2022-08-03T10:54:40;38.60;1.00
11650;DHT22;5881;48.522;7.682;2022-08-03T10:57:44;38.90;1.00
11650;DHT22;5881;48.522;7.682;2022-08-03T11:00:15;39.30;1.00
11650;DHT22;5881;48.522;7.682;2022-08-03T11:03:11;40.30;1.00
11650;DHT22;5881;48.522;7.682;2022-08-03T11:05:46;38.50;1.00
11650;DHT22;5881;48.522;7.682;2022-08-03T11:08:26;38.40;1.00
11650;DHT22;5881;48.522;7.682;2022-08-03T11:10:58;38.80;1.00
11650;DHT22;5881;48.522;7.682;2022-08-03T11:13:26;38.90;1.00
11650;DHT22;5881;48.522;7.682;2022-08-03T11:15:54;39.20;1.00
11650;DHT22;5881;48.522;7.682;2022-08-03T11:18:22;39.80;1.00
11650;DHT22;5881;48.522;7.682;2022-08-03T11:20:53;39.20;1.00
11650;DHT22;5881;48.522;7.682;2022-08-03T11:23:42;38.20;1.00
11650;DHT22;5881;48.522;7.682;2022-08-03T11:28:41;38.80;1.00
11650;DHT22;5881;48.522;7.682;2022-08-03T11:34:13;38.90;1.00
11650;DHT22;5881;48.522;7.682;2022-08-03T11:39:45;38.60;1.00
11650;DHT22;5881;48.522;7.682;2022-08-03T11:44:55;37.00;1.00
11650;DHT22;5881;48.522;7.682;2022-08-03T11:47:23;38.20;1.00
11650;DHT22;5881;48.522;7.682;2022-08-03T11:49:54;37.60;1.00
11650;DHT22;5881;48.522;7.682;2022-08-03T11:52:21;37.80;1.00
11650;DHT22;5881;48.522;7.682;2022-08-03T11:54:50;37.50;1.00
11650;DHT22;5881;48.522;7.682;2022-08-03T11:57:29;37.70;1.00
11650;DHT22;5881;48.522;7.682;2022-08-03T11:59:55;37.70;1.00
11650;DHT22;5881;48.522;7.682;2022-08-03T12:02:27;37.90;1.00
11650;DHT22;5881;48.522;7.682;2022-08-03T12:04:58;37.70;1.00
11650;DHT22;5881;48.522;7.682;2022-08-03T12:07:28;38.20;1.00
11650;DHT22;5881;48.522;7.682;2022-08-03T12:10:11;37.80;1.00
11650;DHT22;5881;48.522;7.682;2022-08-03T12:12:38;37.50;1.00
11650;DHT22;5881;48.522;7.682;2022-08-03T12:15:05;37.20;1.00
11650;DHT22;5881;48.522;7.682;2022-08-03T12:17:38;37.20;1.00
11650;DHT22;5881;48.522;7.682;2022-08-03T12:20:08;37.30;1.00
11650;DHT22;5881;48.522;7.682;2022-08-03T12:22:35;37.20;1.00
11650;DHT22;5881;48.522;7.682;2022-08-03T12:25:05;36.90;1.00
11650;DHT22;5881;48.522;7.682;2022-08-03T12:27:31;37.10;1.00
11650;DHT22;5881;48.522;7.682;2022-08-03T12:29:58;36.50;1.00
11650;DHT22;5881;48.522;7.682;2022-08-03T12:32:26;36.80;1.00
11650;DHT22;5881;48.522;7.682;2022-08-03T12:34:53;36.90;1.00
11650;DHT22;5881;48.522;7.682;2022-08-03T12:37:21;36.60;1.00
11650;DHT22;5881;48.522;7.682;2022-08-03T12:39:58;37.20;1.00
11650;DHT22;5881;48.522;7.682;2022-08-03T12:42:43;37.30;1.00
11650;DHT22;5881;48.522;7.682;2022-08-03T12:45:24;36.80;1.00
11650;DHT22;5881;48.522;7.682;2022-08-03T12:47:55;36.40;1.00
11650;DHT22;5881;48.522;7.682;2022-08-03T12:50:28;36.20;1.00
11650;DHT22;5881;48.522;7.682;2022-08-03T12:52:56;36.50;1.00
11650;DHT22;5881;48.522;7.682;2022-08-03T12:55:35;36.60;1.00
11650;DHT22;5881;48.522;7.682;2022-08-03T12:58:03;36.30;1.00
11650;DHT22;5881;48.522;7.682;2022-08-03T13:00:29;36.30;1.00
11650;DHT22;5881;48.522;7.682;2022-08-03T13:03:06;36.00;1.00
11650;DHT22;5881;48.522;7.682;2022-08-03T13:05:44;36.00;1.00
11650;DHT22;5881;48.522;7.682;2022-08-03T13:08:59;35.90;1.00
11650;DHT22;5881;48.522;7.682;2022-08-03T13:11:28;36.00;1.00
11650;DHT22;5881;48.522;7.682;2022-08-03T13:13:54;36.10;1.00
11650;DHT22;5881;48.522;7.682;2022-08-03T13:16:20;35.70;1.00
11650;DHT22;5881;48.522;7.682;2022-08-03T13:18:47;35.40;1.00
11650;DHT22;5881;48.522;7.682;2022-08-03T13:21:14;35.50;1.00
11650;DHT22;5881;48.522;7.682;2022-08-03T13:23:41;35.20;1.00
11650;DHT22;5881;48.522;7.682;2022-08-03T13:26:08;35.00;1.00
11650;DHT22;5881;48.522;7.682;2022-08-03T13:28:34;34.90;1.00
11650;DHT22;5881;48.522;7.682;2022-08-03T13:30:59;35.20;1.00
11650;DHT22;5881;48.522;7.682;2022-08-03T13:33:28;35.50;1.00
11650;DHT22;5881;48.522;7.682;2022-08-03T13:35:54;35.70;1.00
11650;DHT22;5881;48.522;7.682;2022-08-03T13:38:20;35.40;1.00
11650;DHT22;5881;48.522;7.682;2022-08-03T13:40:45;35.10;1.00
11650;DHT22;5881;48.522;7.682;2022-08-03T13:43:11;35.20;1.00
11650;DHT22;5881;48.522;7.682;2022-08-03T13:45:37;35.20;1.00
11650;DHT22;5881;48.522;7.682;2022-08-03T13:48:03;35.40;1.00
11650;DHT22;5881;48.522;7.682;2022-08-03T13:50:29;35.40;1.00
11650;DHT22;5881;48.522;7.682;2022-08-03T13:52:56;35.70;1.00
11650;DHT22;5881;48.522;7.682;2022-08-03T13:55:22;35.40;1.00
11650;DHT22;5881;48.522;7.682;2022-08-03T13:57:47;35.40;1.00
11650;DHT22;5881;48.522;7.682;2022-08-03T14:00:14;35.30;1.00
11650;DHT22;5881;48.522;7.682;2022-08-03T14:02:40;35.20;1.00
11650;DHT22;5881;48.522;7.682;2022-08-03T14:05:06;35.60;1.00
11650;DHT22;5881;48.522;7.682;2022-08-03T14:07:32;35.60;1.00
11650;DHT22;5881;48.522;7.682;2022-08-03T14:09:58;35.60;1.00
11650;DHT22;5881;48.522;7.682;2022-08-03T14:12:26;35.10;1.00
11650;DHT22;5881;48.522;7.682;2022-08-03T14:14:52;35.30;1.00
11650;DHT22;5881;48.522;7.682;2022-08-03T14:17:18;35.40;1.00
11650;DHT22;5881;48.522;7.682;2022-08-03T14:19:46;35.50;1.00
11650;DHT22;5881;48.522;7.682;2022-08-03T14:22:11;35.60;1.00
11650;DHT22;5881;48.522;7.682;2022-08-03T14:24:37;35.40;1.00
11650;DHT22;5881;48.522;7.682;2022-08-03T14:27:03;35.20;1.00
11650;DHT22;5881;48.522;7.682;2022-08-03T14:29:28;35.10;1.00
11650;DHT22;5881;48.522;7.682;2022-08-03T14:31:54;35.30;1.00
11650;DHT22;5881;48.522;7.682;2022-08-03T14:34:19;35.20;1.00
11650;DHT22;5881;48.522;7.682;2022-08-03T14:36:46;35.60;1.00
11650;DHT22;5881;48.522;7.682;2022-08-03T14:39:12;35.60;1.00
11650;DHT22;5881;48.522;7.682;2022-08-03T14:41:38;36.00;1.00
11650;DHT22;5881;48.522;7.682;2022-08-03T14:44:04;35.70;1.00
11650;DHT22;5881;48.522;7.682;2022-08-03T14:46:30;35.60;1.00
11650;DHT22;5881;48.522;7.682;2022-08-03T14:48:56;35.30;1.00
11650;DHT22;5881;48.522;7.682;2022-08-03T14:51:23;35.10;1.00
11650;DHT22;5881;48.522;7.682;2022-08-03T14:53:48;35.20;1.00
11650;DHT22;5881;48.522;7.682;2022-08-03T14:56:14;34.90;1.00
11650;DHT22;5881;48.522;7.682;2022-08-03T14:58:40;34.80;1.00
11650;DHT22;5881;48.522;7.682;2022-08-03T15:01:06;34.70;1.00
11650;DHT22;5881;48.522;7.682;2022-08-03T15:03:32;34.80;1.00
11650;DHT22;5881;48.522;7.682;2022-08-03T15:05:57;34.80;1.00
11650;DHT22;5881;48.522;7.682;2022-08-03T15:08:24;34.60;1.00
11650;DHT22;5881;48.522;7.682;2022-08-03T15:10:50;34.40;1.00
11650;DHT22;5881;48.522;7.682;2022-08-03T15:13:17;34.50;1.00
11650;DHT22;5881;48.522;7.682;2022-08-03T15:15:44;34.50;1.00
11650;DHT22;5881;48.522;7.682;2022-08-03T15:18:09;34.40;1.00
11650;DHT22;5881;48.522;7.682;2022-08-03T15:20:35;34.20;1.00
11650;DHT22;5881;48.522;7.682;2022-08-03T15:23:01;34.20;1.00
11650;DHT22;5881;48.522;7.682;2022-08-03T15:25:26;34.20;1.00
11650;DHT22;5881;48.522;7.682;2022-08-03T15:27:52;34.20;1.00
11650;DHT22;5881;48.522;7.682;2022-08-03T15:30:18;34.20;1.00
11650;DHT22;5881;48.522;7.682;2022-08-03T15:32:43;34.30;1.00
11650;DHT22;5881;48.522;7.682;2022-08-03T15:35:09;34.50;1.00
11650;DHT22;5881;48.522;7.682;2022-08-03T15:37:34;34.50;1.00
11650;DHT22;5881;48.522;7.682;2022-08-03T15:40:00;34.40;1.00
11650;DHT22;5881;48.522;7.682;2022-08-03T15:42:29;34.30;1.00
11650;DHT22;5881;48.522;7.682;2022-08-03T15:44:57;34.40;1.00
11650;DHT22;5881;48.522;7.682;2022-08-03T15:47:22;34.50;1.00
11650;DHT22;5881;48.522;7.682;2022-08-03T15:49:48;34.20;1.00
11650;DHT22;5881;48.522;7.682;2022-08-03T15:52:14;34.20;1.00
11650;DHT22;5881;48.522;7.682;2022-08-03T15:54:39;34.20;1.00
11650;DHT22;5881;48.522;7.682;2022-08-03T15:57:05;34.10;1.00
11650;DHT22;5881;48.522;7.682;2022-08-03T15:59:30;34.20;1.00
11650;DHT22;5881;48.522;7.682;2022-08-03T16:01:56;34.10;1.00
11650;DHT22;5881;48.522;7.682;2022-08-03T16:04:22;34.10;1.00
11650;DHT22;5881;48.522;7.682;2022-08-03T16:06:48;34.20;1.00
11650;DHT22;5881;48.522;7.682;2022-08-03T16:09:14;34.00;1.00
11650;DHT22;5881;48.522;7.682;2022-08-03T16:11:39;34.00;1.00
11650;DHT22;5881;48.522;7.682;2022-08-03T16:14:05;34.00;1.00
11650;DHT22;5881;48.522;7.682;2022-08-03T16:16:30;34.10;1.00
11650;DHT22;5881;48.522;7.682;2022-08-03T16:18:56;34.00;1.00
11650;DHT22;5881;48.522;7.682;2022-08-03T16:21:22;34.00;1.00
11650;DHT22;5881;48.522;7.682;2022-08-03T16:23:48;33.90;1.00